AIRPORT INFORMATION 18-10-2021 07:08 KNMI / JUMPRUN.NL

FTEHAM AMSTERDAM/SCHIPHOL NLD -3 m.
180500 ... TAF EHAM 180444Z 1806/1912 17008KT CAVOK
    TEMPO 1818/1822 6000 RA BKN025
    BECMG 1822/1901 7000 BKN012
    BECMG 1901/1904 21012KT 4500 BR SCT003 BKN005
    BECMG 1904/1906 1500 BR -DZ SCT002 BKN003
    PROB40 1906/1912 0500 FG OVC001
    BECMG 1910/1912 24015G25KT 2500 BKN007=

FTEHBK MAASTRICHT/MAASTRICHT- AACHEN
NLD 114 m.
180500 ... TAF EHBK 180445Z 1806/1912 18005KT CAVOK
    BECMG 1900/1903 21010KT 6000 RADZ BKN014
    BECMG 1903/1906 3000 DZRA BR BKN006=

FTEHEH EINDHOVEN/EINDHOVEN NLD 22 m.
180500 ... TAF EHEH 180509Z 1806/1912 18006KT CAVOK
    BECMG 1822/1901 SCT015 BKN020
    PROB40 TEMPO 1822/1901 4000 RA SCT010 BKN015
    BECMG 1902/1905 4800 BR RADZ SCT006 BKN008
    PROB40 TEMPO 1905/1912 2500 BR DZRA SCT003 BKN005=

FTEHGG GRONINGEN/EELDE NLD 5 m.
180500 ... TAF EHGG 180445Z 1806/1912 20008KT CAVOK
    TEMPO 1822/1824 7000 RA
    BECMG 1900/1903 2500 DZ BR OVC006
    BECMG 1903/1906 1200 OVC003
    BECMG 1906/1908 0500 FG DZ OVC000=

FTEHRD ROTTERDAM/THE HAGUE AIRPORT NLD -5 m.
180500 ... TAF EHRD 180445Z 1806/1912 17008KT CAVOK
    TEMPO 1817/1821 6000 RA BKN025
    BECMG 1821/1824 7000 BKN012
    BECMG 1900/1903 21012KT 4500 BR SCT003 BKN005
    BECMG 1903/1906 1500 BR DZ SCT002 BKN003
    PROB40 1906/1910 0500 FG OVC001
    BECMG 1909/1911 24015G25KT 2500 BKN007=

FTEHLE LELYSTAD/LELYSTAD NLD -3 m.
180500 ... TAF EHLE 180445Z 1806/1912 18008KT CAVOK
    TEMPO 1819/1823 6000 RA BKN025
    BECMG 1823/1902 7000 BKN012
    BECMG 1902/1905 21012KT 4500 BR SCT003 BKN005
    BECMG 1905/1907 1500 BR DZ SCT002 BKN003
    PROB40 1907/1912 0500 FG OVC001=

ENDOUTPUT
AIRPORT INFORMATION 18-10-2021 07:08 KNMI / JUMPRUN.NL

FCEHDL ARNHEM/DEELEN NLD 48 m.
180500 ... TAF EHDL 180500Z NIL=
FCEHGR GILZE-RIJEN/GILZE-RIJEN NLD 14 m.
180500 ... TAF EHGR 180439Z 1805/1817 18006KT CAVOK=
FCEHKD DE KOOY/DE KOOY NLD 1 m.
180500 ... TAF EHKD 180439Z 1805/1817 18009KT CAVOK=
FCEHLW LEEUWARDEN/LEEUWARDEN NLD 1 m.
180500 ... TAF EHLW 180438Z 1805/1817 19009KT CAVOK=
FCEHVK VOLKEL/VOLKEL NLD 21 m.
180500 ... TAF EHVK 180430Z 1805/1817 18005KT CAVOK=
FCEHWO WOENSDRECHT/WOENSDRECHT NLD 19 m.
180500 ... TAF EHWO 180438Z 1805/1817 17006KT CAVOK=
ENDOUTPUT